createdAt,value
2023-11-22T00:00:52.723Z,101016.17
2023-11-22T00:03:34.073Z,101018.98
2023-11-22T00:06:04.860Z,101019.61
2023-11-22T00:08:32.579Z,101025.86
2023-11-22T00:11:00.428Z,101027.34
2023-11-22T00:13:28.055Z,101030.66
2023-11-22T00:15:55.675Z,101034.30
2023-11-22T00:18:23.904Z,101037.48
2023-11-22T00:20:51.503Z,101041.36
2023-11-22T00:23:19.121Z,101047.48
2023-11-22T00:25:46.621Z,101049.68
2023-11-22T00:28:14.764Z,101050.29
2023-11-22T00:30:42.399Z,101054.36
2023-11-22T00:33:10.216Z,101050.52
2023-11-22T00:35:37.765Z,101051.98
2023-11-22T00:38:05.383Z,101055.11
2023-11-22T00:40:32.991Z,101059.16
2023-11-22T00:43:00.560Z,101058.45
2023-11-22T00:45:28.134Z,101059.80
2023-11-22T00:47:55.675Z,101059.05
2023-11-22T00:50:23.286Z,101056.86
2023-11-22T00:52:50.801Z,101056.65
2023-11-22T00:55:18.362Z,101052.77
2023-11-22T00:57:46.020Z,101051.57
2023-11-22T01:00:14.710Z,101055.56
2023-11-22T01:02:42.396Z,101054.31
2023-11-22T01:05:13.798Z,101052.55
2023-11-22T01:07:41.384Z,101052.70
2023-11-22T01:10:09.585Z,101048.87
2023-11-22T01:12:37.173Z,101047.58
2023-11-22T01:15:06.847Z,101046.90
2023-11-22T01:17:35.548Z,101050.86
2023-11-22T01:20:04.714Z,101053.63
2023-11-22T01:22:32.400Z,101052.41
2023-11-22T01:24:59.963Z,101054.31
2023-11-22T01:27:28.620Z,101061.00
2023-11-22T01:29:56.228Z,101063.69
2023-11-22T01:32:23.871Z,101063.27
2023-11-22T01:34:51.434Z,101063.67
2023-11-22T01:37:18.981Z,101066.70
2023-11-22T01:39:47.296Z,101063.08
2023-11-22T01:42:15.803Z,101058.77
2023-11-22T01:44:43.338Z,101056.17
2023-11-22T01:47:11.310Z,101065.20
2023-11-22T01:49:39.287Z,101072.31
2023-11-22T01:52:07.473Z,101075.89
2023-11-22T01:54:35.058Z,101082.01
2023-11-22T01:57:03.422Z,101086.05
2023-11-22T01:59:32.615Z,101088.90
2023-11-22T02:02:00.589Z,101089.44
2023-11-22T02:04:28.834Z,101084.96
2023-11-22T02:06:56.695Z,101095.79
2023-11-22T02:09:24.225Z,101113.55
2023-11-22T02:11:51.737Z,101120.18
2023-11-22T02:14:20.028Z,101121.29
2023-11-22T02:16:47.669Z,101112.31
2023-11-22T02:19:17.490Z,101108.03
2023-11-22T02:21:46.354Z,101115.67
2023-11-22T02:24:13.993Z,101127.27
2023-11-22T02:26:46.842Z,101134.24
2023-11-22T02:29:15.752Z,101138.41
2023-11-22T02:31:46.346Z,101136.81
2023-11-22T02:34:14.026Z,101140.05
2023-11-22T02:36:51.204Z,101139.67
2023-11-22T02:39:31.009Z,101141.23
2023-11-22T02:41:59.711Z,101143.84
2023-11-22T02:44:27.911Z,101148.70
2023-11-22T02:46:55.581Z,101152.15
2023-11-22T02:49:23.139Z,101154.27
2023-11-22T02:51:51.352Z,101163.77
2023-11-22T02:54:18.916Z,101163.77
2023-11-22T02:56:46.535Z,101161.08
2023-11-22T02:59:15.093Z,101162.80
2023-11-22T03:01:44.101Z,101170.38
2023-11-22T03:04:11.927Z,101188.45
2023-11-22T03:06:39.473Z,101185.84
2023-11-22T03:09:09.389Z,101181.38
2023-11-22T03:11:37.859Z,101181.30
2023-11-22T03:14:05.617Z,101182.14
2023-11-22T03:16:34.187Z,101190.53
2023-11-22T03:19:02.873Z,101196.90
2023-11-22T03:21:30.674Z,101194.52
2023-11-22T03:23:59.292Z,101206.06
2023-11-22T03:26:26.901Z,101210.02
2023-11-22T03:28:54.481Z,101206.92
2023-11-22T03:31:22.462Z,101201.04
2023-11-22T03:33:50.060Z,101200.15
2023-11-22T03:36:17.614Z,101198.98
2023-11-22T03:38:45.948Z,101197.58
2023-11-22T03:41:13.563Z,101199.06
2023-11-22T03:43:41.164Z,101200.48
2023-11-22T03:46:08.794Z,101201.90
2023-11-22T03:48:36.363Z,101195.02
2023-11-22T03:51:04.551Z,101195.65
2023-11-22T03:53:33.266Z,101195.57
2023-11-22T03:56:00.970Z,101185.38
2023-11-22T03:58:28.732Z,101182.18
2023-11-22T04:00:56.927Z,101181.86
2023-11-22T04:03:24.563Z,101199.80
2023-11-22T04:05:52.280Z,101217.79
2023-11-22T04:08:21.329Z,101226.59
2023-11-22T04:10:48.909Z,101213.93
2023-11-22T04:13:16.467Z,101209.33
2023-11-22T04:15:44.665Z,101210.96
2023-11-22T04:18:12.794Z,101215.59
2023-11-22T04:20:41.206Z,101199.14
2023-11-22T04:23:11.781Z,101190.05
2023-11-22T04:25:40.167Z,101174.27
2023-11-22T04:28:09.878Z,101166.39
2023-11-22T04:30:37.496Z,101165.45
2023-11-22T04:33:05.178Z,101171.83
2023-11-22T04:35:37.253Z,101176.84
2023-11-22T04:38:05.041Z,101174.06
2023-11-22T04:40:32.692Z,101173.98
2023-11-22T04:43:00.372Z,101181.09
2023-11-22T04:45:27.952Z,101192.93
2023-11-22T04:47:58.343Z,101199.71
2023-11-22T04:50:26.143Z,101204.29
2023-11-22T04:52:54.014Z,101216.08
2023-11-22T04:55:21.587Z,101224.17
2023-11-22T04:57:49.227Z,101229.08
2023-11-22T05:00:18.378Z,101235.98
2023-11-22T05:02:46.104Z,101245.08
2023-11-22T05:05:13.925Z,101259.65
2023-11-22T05:07:41.732Z,101268.42
2023-11-22T05:10:10.957Z,101273.48
2023-11-22T05:12:38.608Z,101275.28
2023-11-22T05:15:08.547Z,101275.08
2023-11-22T05:17:36.446Z,101284.59
2023-11-22T05:20:06.204Z,101304.42
2023-11-22T05:22:33.813Z,101313.17
2023-11-22T05:25:01.730Z,101322.14
2023-11-22T05:27:29.921Z,101325.54
2023-11-22T05:29:57.594Z,101323.76
2023-11-22T05:32:25.229Z,101319.81
2023-11-22T05:34:52.879Z,101318.56
2023-11-22T05:37:22.164Z,101320.70
2023-11-22T05:39:50.000Z,101314.80
2023-11-22T05:42:18.960Z,101308.50
2023-11-22T05:44:46.639Z,101308.41
2023-11-22T05:47:14.853Z,101315.66
2023-11-22T05:49:42.561Z,101320.39
2023-11-22T05:52:10.142Z,101324.20
2023-11-22T05:54:37.860Z,101322.88
2023-11-22T05:57:05.796Z,101312.86
2023-11-22T05:59:33.386Z,101311.52
2023-11-22T06:02:01.153Z,101314.77
2023-11-22T06:04:28.839Z,101316.05
2023-11-22T06:06:56.556Z,101316.05
2023-11-22T06:09:24.247Z,101325.45
2023-11-22T06:11:51.813Z,101334.13
2023-11-22T06:14:20.653Z,101336.66
2023-11-22T06:16:48.424Z,101336.86
2023-11-22T06:19:16.763Z,101343.15
2023-11-22T06:21:44.477Z,101345.05
2023-11-22T06:24:17.273Z,101359.04
2023-11-22T06:26:47.962Z,101369.14
2023-11-22T06:29:18.754Z,101373.57
2023-11-22T06:31:46.341Z,101376.34
2023-11-22T06:34:14.014Z,101380.27
2023-11-22T06:36:41.886Z,101385.20
2023-11-22T06:39:10.328Z,101382.52
2023-11-22T06:41:38.251Z,101376.15
2023-11-22T06:44:06.209Z,101374.57
2023-11-22T06:46:34.029Z,101384.41
2023-11-22T06:49:01.730Z,101387.20
2023-11-22T06:51:29.422Z,101393.75
2023-11-22T06:53:58.962Z,101399.39
2023-11-22T06:56:26.914Z,101405.14
2023-11-22T06:58:55.556Z,101405.48
2023-11-22T07:01:27.823Z,101406.23
2023-11-22T07:03:58.954Z,101403.63
2023-11-22T07:06:29.811Z,101400.80
2023-11-22T07:08:59.434Z,101410.34
2023-11-22T07:11:34.947Z,101415.20
2023-11-22T07:14:05.113Z,101417.91
2023-11-22T07:16:34.678Z,101414.37
2023-11-22T07:19:10.881Z,101412.84
2023-11-22T07:21:53.279Z,101406.07
2023-11-22T07:24:35.403Z,101404.97
2023-11-22T07:28:01.093Z,101409.80
2023-11-22T07:30:37.424Z,101420.92
2023-11-22T07:33:09.653Z,101417.18
2023-11-22T07:35:45.453Z,101419.60
2023-11-22T07:38:13.436Z,101426.89
2023-11-22T07:40:42.759Z,101431.52
2023-11-22T07:43:10.411Z,101439.65
2023-11-22T07:45:39.361Z,101437.21
2023-11-22T07:48:08.585Z,101431.99
2023-11-22T07:50:40.298Z,101434.22
2023-11-22T07:53:10.257Z,101431.17
2023-11-22T07:55:39.064Z,101431.55
2023-11-22T07:58:09.782Z,101431.17
2023-11-22T08:00:42.991Z,101433.13
2023-11-22T08:03:10.812Z,101439.86
2023-11-22T08:05:41.361Z,101441.27
2023-11-22T08:08:09.747Z,101439.37
2023-11-22T08:10:38.635Z,101446.28
2023-11-22T08:13:06.368Z,101454.11
2023-11-22T08:15:34.161Z,101464.48
2023-11-22T08:18:02.157Z,101458.02
2023-11-22T08:20:32.023Z,101453.28
2023-11-22T08:23:01.072Z,101455.11
2023-11-22T08:25:32.705Z,101452.12
2023-11-22T08:28:09.241Z,101448.44
2023-11-22T08:30:43.525Z,101445.56
2023-11-22T08:33:12.812Z,101446.00
2023-11-22T08:35:40.896Z,101445.72
2023-11-22T08:38:10.590Z,101438.19
2023-11-22T08:40:39.224Z,101437.65
2023-11-22T08:43:07.048Z,101440.13
2023-11-22T08:45:35.741Z,101446.21
2023-11-22T08:48:04.562Z,101452.91
2023-11-22T08:50:32.894Z,101455.52
2023-11-22T08:53:01.917Z,101457.23
2023-11-22T08:55:29.678Z,101452.06
2023-11-22T08:57:57.320Z,101451.39
2023-11-22T09:00:29.095Z,101448.67
2023-11-22T09:02:57.180Z,101438.56
2023-11-22T09:05:25.802Z,101424.03
2023-11-22T09:07:56.545Z,101426.98
2023-11-22T09:10:24.451Z,101421.04
2023-11-22T09:12:54.455Z,101413.31
2023-11-22T09:15:27.209Z,101422.78
2023-11-22T09:17:54.872Z,101433.20
2023-11-22T09:20:22.658Z,101431.34
2023-11-22T09:22:55.624Z,101423.94
2023-11-22T09:25:25.404Z,101426.29
2023-11-22T09:28:00.271Z,101422.63
2023-11-22T09:30:36.377Z,101416.81
2023-11-22T09:33:06.499Z,101411.48
2023-11-22T09:35:35.293Z,101406.73
2023-11-22T09:38:05.367Z,101406.56
2023-11-22T09:40:33.143Z,101403.20
2023-11-22T09:43:02.971Z,101406.48
2023-11-22T09:45:32.323Z,101398.40
2023-11-22T09:48:02.691Z,101393.69
2023-11-22T09:50:42.137Z,101397.40
2023-11-22T09:53:19.340Z,101390.94
2023-11-22T09:55:47.441Z,101382.22
2023-11-22T09:58:17.421Z,101379.84
2023-11-22T10:00:45.177Z,101373.67
2023-11-22T10:03:15.557Z,101368.12
2023-11-22T10:05:43.784Z,101371.40
2023-11-22T10:08:11.489Z,101367.70
2023-11-22T10:10:41.134Z,101374.82
2023-11-22T10:13:10.930Z,101379.02
2023-11-22T10:15:38.483Z,101375.02
2023-11-22T10:18:08.269Z,101377.79
2023-11-22T10:20:41.334Z,101377.40
2023-11-22T10:23:11.118Z,101373.81
2023-11-22T10:25:54.778Z,101381.23
2023-11-22T10:28:26.503Z,101378.35
2023-11-22T10:30:54.595Z,101374.16
2023-11-22T10:33:24.050Z,101369.65
2023-11-22T10:35:52.598Z,101375.52
2023-11-22T10:38:21.397Z,101376.67
2023-11-22T10:40:49.051Z,101377.04
2023-11-22T10:43:17.731Z,101379.98
2023-11-22T10:45:54.432Z,101386.54
2023-11-22T10:48:22.294Z,101387.04
2023-11-22T10:50:50.961Z,101387.70
2023-11-22T10:53:27.052Z,101386.35
2023-11-22T10:56:13.654Z,101389.11
2023-11-22T10:58:49.786Z,101388.60
2023-11-22T11:01:18.274Z,101387.40
2023-11-22T11:04:02.168Z,101391.10
2023-11-22T11:06:34.631Z,101394.29
2023-11-22T11:09:11.567Z,101393.33
2023-11-22T11:11:42.245Z,101390.55
2023-11-22T11:14:12.508Z,101391.02
2023-11-22T11:16:49.285Z,101390.11
2023-11-22T11:19:23.215Z,101391.56
2023-11-22T11:21:50.983Z,101382.05
2023-11-22T11:24:19.400Z,101379.23
2023-11-22T11:26:55.485Z,101376.75
2023-11-22T11:29:43.845Z,101376.44
2023-11-22T11:32:14.372Z,101376.36
2023-11-22T11:34:50.662Z,101372.05
2023-11-22T11:37:22.118Z,101371.42
2023-11-22T11:39:50.383Z,101369.10
2023-11-22T11:42:21.288Z,101365.05
2023-11-22T11:45:06.107Z,101367.75
2023-11-22T11:47:35.031Z,101365.89
2023-11-22T11:50:03.667Z,101366.09
2023-11-22T11:52:34.194Z,101365.18
2023-11-22T11:55:02.136Z,101360.20
2023-11-22T11:57:33.403Z,101363.19
2023-11-22T12:00:01.626Z,101369.61
2023-11-22T12:02:30.156Z,101362.38
2023-11-22T12:04:57.793Z,101359.88
2023-11-22T12:07:25.320Z,101366.13
2023-11-22T12:09:52.923Z,101359.33
2023-11-22T12:12:20.548Z,101349.88
2023-11-22T12:14:48.276Z,101343.02
2023-11-22T12:17:17.373Z,101344.33
2023-11-22T12:19:44.975Z,101344.43
2023-11-22T12:22:13.211Z,101348.95
2023-11-22T12:24:40.872Z,101342.11
2023-11-22T12:27:11.185Z,101333.73
2023-11-22T12:29:42.783Z,101331.36
2023-11-22T12:32:10.565Z,101332.31
2023-11-22T12:34:38.238Z,101333.18
2023-11-22T12:37:08.791Z,101329.55
2023-11-22T12:39:38.030Z,101336.13
2023-11-22T12:42:10.810Z,101335.13
2023-11-22T12:44:50.675Z,101328.45
2023-11-22T12:47:38.909Z,101322.05
2023-11-22T12:50:30.610Z,101322.85
2023-11-22T12:53:00.153Z,101330.26
2023-11-22T12:55:28.485Z,101326.85
2023-11-22T12:58:04.540Z,101317.98
2023-11-22T13:00:32.413Z,101319.59
2023-11-22T13:03:03.774Z,101319.80
2023-11-22T13:05:32.615Z,101320.02
2023-11-22T13:08:02.769Z,101317.08
2023-11-22T13:10:35.037Z,101311.95
2023-11-22T13:13:02.989Z,101312.58
2023-11-22T13:15:31.096Z,101322.56
2023-11-22T13:18:00.157Z,101322.94
2023-11-22T13:20:28.980Z,101317.89
2023-11-22T13:22:57.066Z,101313.55
2023-11-22T13:25:24.843Z,101310.89
2023-11-22T13:27:53.950Z,101312.36
2023-11-22T13:30:24.119Z,101306.75
2023-11-22T13:32:59.653Z,101298.42
2023-11-22T13:35:32.005Z,101284.99
2023-11-22T13:38:02.828Z,101278.46
2023-11-22T13:40:35.014Z,101273.11
2023-11-22T13:43:04.815Z,101265.91
2023-11-22T13:45:32.647Z,101257.02
2023-11-22T13:48:05.770Z,101252.09
2023-11-22T13:50:34.341Z,101250.89
2023-11-22T13:53:04.958Z,101251.90
2023-11-22T13:55:32.839Z,101262.52
2023-11-22T13:58:01.298Z,101254.64
2023-11-22T14:00:34.473Z,101250.63
2023-11-22T14:03:07.676Z,101246.39
2023-11-22T14:05:38.717Z,101243.13
2023-11-22T14:08:07.559Z,101248.89
2023-11-22T14:10:36.138Z,101256.83
2023-11-22T14:13:05.280Z,101270.87
2023-11-22T14:15:33.561Z,101283.77
2023-11-22T14:18:01.476Z,101298.73
2023-11-22T14:20:30.704Z,101313.38
2023-11-22T14:22:58.487Z,101318.86
2023-11-22T14:25:27.686Z,101321.08
2023-11-22T14:27:57.217Z,101318.19
2023-11-22T14:30:28.005Z,101311.88
2023-11-22T14:32:56.331Z,101305.48
2023-11-22T14:35:24.404Z,101299.77
2023-11-22T14:37:53.953Z,101305.15
2023-11-22T14:40:21.743Z,101295.97
2023-11-22T14:42:51.421Z,101278.52
2023-11-22T14:45:21.194Z,101264.60
2023-11-22T14:47:52.579Z,101256.89
2023-11-22T14:50:22.023Z,101250.39
2023-11-22T14:52:50.905Z,101242.36
2023-11-22T14:55:20.598Z,101237.67
2023-11-22T14:57:48.667Z,101246.48
2023-11-22T15:00:16.607Z,101245.92
2023-11-22T15:02:44.534Z,101243.34
2023-11-22T15:05:13.681Z,101246.08
2023-11-22T15:07:43.243Z,101245.19
2023-11-22T15:10:12.368Z,101242.70
2023-11-22T15:12:43.471Z,101248.34
2023-11-22T15:15:12.264Z,101244.85
2023-11-22T15:17:40.942Z,101240.98
2023-11-22T15:20:12.635Z,101240.37
2023-11-22T15:22:41.583Z,101245.50
2023-11-22T15:25:10.931Z,101261.60
2023-11-22T15:27:39.776Z,101274.77
2023-11-22T15:30:09.970Z,101274.63
2023-11-22T15:32:37.692Z,101271.95
2023-11-22T15:35:06.378Z,101268.27
2023-11-22T15:37:34.489Z,101270.20
2023-11-22T15:40:02.722Z,101276.86
2023-11-22T15:42:30.726Z,101272.85
2023-11-22T15:44:58.681Z,101279.83
2023-11-22T15:47:26.557Z,101276.20
2023-11-22T15:49:56.836Z,101273.85
2023-11-22T15:52:24.567Z,101269.46
2023-11-22T15:54:52.201Z,101271.60
2023-11-22T15:57:19.855Z,101277.02
2023-11-22T15:59:49.985Z,101277.56
2023-11-22T16:02:18.618Z,101276.63
2023-11-22T16:04:47.350Z,101274.54
2023-11-22T16:07:16.035Z,101274.16
2023-11-22T16:09:44.326Z,101265.59
2023-11-22T16:12:19.477Z,101258.89
2023-11-22T16:14:47.709Z,101268.19
2023-11-22T16:17:16.817Z,101268.27
2023-11-22T16:19:46.440Z,101276.20
2023-11-22T16:22:14.082Z,101281.45
2023-11-22T16:24:41.849Z,101282.52
2023-11-22T16:27:09.659Z,101276.19
2023-11-22T16:29:38.022Z,101264.52
2023-11-22T16:32:06.878Z,101264.98
2023-11-22T16:34:35.081Z,101261.51
2023-11-22T16:37:03.319Z,101251.33
2023-11-22T16:39:31.479Z,101246.41
2023-11-22T16:41:59.201Z,101246.74
2023-11-22T16:44:26.831Z,101243.70
2023-11-22T16:46:54.467Z,101245.90
2023-11-22T16:49:22.273Z,101241.83
2023-11-22T16:51:49.850Z,101243.72
2023-11-22T16:54:18.484Z,101249.33
2023-11-22T16:56:46.208Z,101249.64
2023-11-22T16:59:13.896Z,101250.96
2023-11-22T17:01:41.593Z,101250.84
2023-11-22T17:04:09.461Z,101247.14
2023-11-22T17:06:37.726Z,101249.45
2023-11-22T17:09:05.981Z,101240.00
2023-11-22T17:11:33.822Z,101240.46
2023-11-22T17:14:01.412Z,101233.75
2023-11-22T17:16:30.937Z,101220.59
2023-11-22T17:18:58.528Z,101212.18
2023-11-22T17:21:26.127Z,101193.23
2023-11-22T17:23:53.806Z,101183.48
2023-11-22T17:26:21.609Z,101181.89
2023-11-22T17:28:49.350Z,101165.77
2023-11-22T17:31:16.942Z,101147.98
2023-11-22T17:33:44.988Z,101148.52
2023-11-22T17:36:14.681Z,101147.73
2023-11-22T17:38:42.446Z,101137.98
2023-11-22T17:41:11.613Z,101128.93
2023-11-22T17:43:39.224Z,101121.23
2023-11-22T17:46:10.766Z,101126.13
2023-11-22T17:48:38.820Z,101136.02
2023-11-22T17:51:06.788Z,101138.10
2023-11-22T17:53:34.421Z,101135.83
2023-11-22T17:56:02.839Z,101141.92
2023-11-22T17:58:32.306Z,101145.14
2023-11-22T18:00:59.959Z,101144.29
2023-11-22T18:03:27.804Z,101149.61
2023-11-22T18:05:55.633Z,101148.95
2023-11-22T18:08:26.636Z,101141.33
2023-11-22T18:10:54.151Z,101116.15
2023-11-22T18:13:22.044Z,101127.81
2023-11-22T18:15:50.252Z,101131.60
2023-11-22T18:18:17.890Z,101134.52
2023-11-22T18:20:46.097Z,101152.80
2023-11-22T18:23:14.694Z,101161.84
2023-11-22T18:25:42.360Z,101162.67
2023-11-22T18:28:13.130Z,101166.63
2023-11-22T18:30:41.248Z,101162.38
2023-11-22T18:33:13.041Z,101170.09
2023-11-22T18:35:41.658Z,101173.20
2023-11-22T18:38:09.772Z,101154.18
2023-11-22T18:40:37.370Z,101146.58
2023-11-22T18:43:07.252Z,101148.20
2023-11-22T18:45:35.394Z,101138.04
2023-11-22T18:48:04.233Z,101122.91
2023-11-22T18:50:32.256Z,101108.69
2023-11-22T18:53:00.697Z,101097.15
2023-11-22T18:55:28.442Z,101097.09
2023-11-22T18:57:56.777Z,101100.64
2023-11-22T19:00:24.522Z,101099.40
2023-11-22T19:02:52.511Z,101089.02
2023-11-22T19:05:20.381Z,101082.79
2023-11-22T19:07:52.012Z,101077.77
2023-11-22T19:10:20.377Z,101070.77
2023-11-22T19:12:47.959Z,101066.11
2023-11-22T19:15:15.604Z,101064.41
2023-11-22T19:17:43.308Z,101060.98
2023-11-22T19:20:11.759Z,101055.87
2023-11-22T19:22:41.243Z,101054.32
2023-11-22T19:25:13.387Z,101049.73
2023-11-22T19:27:41.020Z,101040.52
2023-11-22T19:30:09.363Z,101044.95
2023-11-22T19:32:37.481Z,101036.27
2023-11-22T19:35:06.664Z,101033.08
2023-11-22T19:37:34.470Z,101033.46
2023-11-22T19:40:05.195Z,101045.67
2023-11-22T19:42:35.441Z,101051.67
2023-11-22T19:45:03.255Z,101051.69
2023-11-22T19:47:32.366Z,101054.18
2023-11-22T19:50:01.554Z,101053.87
2023-11-22T19:52:29.125Z,101049.25
2023-11-22T19:54:56.698Z,101045.50
2023-11-22T19:57:24.441Z,101029.48
2023-11-22T19:59:52.049Z,101027.35
2023-11-22T20:02:21.449Z,101034.20
2023-11-22T20:04:49.770Z,101047.34
2023-11-22T20:07:17.433Z,101047.58
2023-11-22T20:09:45.126Z,101036.72
2023-11-22T20:12:12.703Z,101035.86
2023-11-22T20:14:40.361Z,101028.17
2023-11-22T20:17:10.375Z,101007.65
2023-11-22T20:19:37.943Z,101001.14
2023-11-22T20:22:05.523Z,100993.27
2023-11-22T20:24:33.150Z,100987.38
2023-11-22T20:27:01.067Z,100984.23
2023-11-22T20:29:28.719Z,100975.64
2023-11-22T20:31:56.282Z,100966.35
2023-11-22T20:34:24.157Z,100963.95
2023-11-22T20:36:51.905Z,100960.64
2023-11-22T20:39:21.126Z,100965.47
2023-11-22T20:41:48.846Z,100959.41
2023-11-22T20:44:17.274Z,100950.15
2023-11-22T20:46:46.596Z,100953.89
2023-11-22T20:49:15.378Z,100949.84
2023-11-22T20:51:43.770Z,100947.39
2023-11-22T20:54:11.351Z,100945.95
2023-11-22T20:56:38.947Z,100946.08
2023-11-22T20:59:06.647Z,100940.18
2023-11-22T21:01:34.321Z,100940.68
2023-11-22T21:04:02.284Z,100941.70
2023-11-22T21:06:30.105Z,100927.33
2023-11-22T21:08:57.720Z,100917.69
2023-11-22T21:11:25.582Z,100915.95
2023-11-22T21:13:53.160Z,100912.81
2023-11-22T21:16:22.843Z,100907.14
2023-11-22T21:18:51.573Z,100900.64
2023-11-22T21:21:19.305Z,100900.46
2023-11-22T21:23:46.946Z,100897.17
2023-11-22T21:26:16.852Z,100889.95
2023-11-22T21:28:44.409Z,100882.17
2023-11-22T21:31:18.865Z,100874.25
2023-11-22T21:33:47.161Z,100872.94
2023-11-22T21:36:16.021Z,100869.06
2023-11-22T21:38:44.261Z,100868.26
2023-11-22T21:41:15.043Z,100867.36
2023-11-22T21:43:42.983Z,100853.80
2023-11-22T21:46:19.350Z,100841.29
2023-11-22T21:48:47.270Z,100857.45
2023-11-22T21:51:15.395Z,100864.05
2023-11-22T21:53:43.002Z,100847.44
2023-11-22T21:56:10.661Z,100834.55
2023-11-22T21:58:38.203Z,100830.41
2023-11-22T22:01:11.021Z,100823.55
2023-11-22T22:03:42.836Z,100809.37
2023-11-22T22:06:11.025Z,100801.67
2023-11-22T22:08:39.133Z,100796.02
2023-11-22T22:11:06.853Z,100785.31
2023-11-22T22:13:34.646Z,100778.86
2023-11-22T22:16:02.193Z,100775.66
2023-11-22T22:18:29.951Z,100778.76
2023-11-22T22:20:57.703Z,100762.20
2023-11-22T22:23:25.270Z,100750.61
2023-11-22T22:25:52.789Z,100747.36
2023-11-22T22:28:20.387Z,100737.98
2023-11-22T22:30:47.994Z,100728.77
2023-11-22T22:33:15.807Z,100726.71
2023-11-22T22:35:44.445Z,100712.00
2023-11-22T22:38:12.004Z,100705.14
2023-11-22T22:40:39.550Z,100704.59
2023-11-22T22:43:07.259Z,100696.21
2023-11-22T22:45:34.776Z,100687.49
2023-11-22T22:48:02.860Z,100687.30
2023-11-22T22:50:30.885Z,100681.97
2023-11-22T22:52:59.038Z,100683.46
2023-11-22T22:55:26.610Z,100675.45
2023-11-22T22:57:54.191Z,100669.81
2023-11-22T23:00:45.053Z,100666.57
2023-11-22T23:03:13.283Z,100658.40
2023-11-22T23:05:41.260Z,100644.74
2023-11-22T23:08:10.083Z,100636.52
2023-11-22T23:10:37.675Z,100623.71
2023-11-22T23:13:06.947Z,100615.50
2023-11-22T23:15:34.553Z,100603.70
2023-11-22T23:18:03.677Z,100593.55
2023-11-22T23:20:44.071Z,100574.11
2023-11-22T23:23:17.761Z,100567.45
2023-11-22T23:25:45.604Z,100557.90
2023-11-22T23:28:13.210Z,100549.18
2023-11-22T23:30:40.879Z,100551.05
2023-11-22T23:33:08.787Z,100553.43
2023-11-22T23:35:37.838Z,100559.39
2023-11-22T23:38:07.281Z,100555.25
2023-11-22T23:40:35.067Z,100541.90
2023-11-22T23:43:04.768Z,100529.70
2023-11-22T23:45:33.689Z,100516.00
2023-11-22T23:48:01.803Z,100509.68
2023-11-22T23:50:29.552Z,100495.89
2023-11-22T23:52:57.116Z,100488.92
2023-11-22T23:55:25.228Z,100481.41
2023-11-22T23:57:52.787Z,100477.31
